TimeCST,TemperatureF,Dew PointF,Humidity,Sea Level PressureIn,VisibilityMPH,Wind Direction,Wind SpeedMPH,Gust SpeedMPH,PrecipitationIn,Events,Conditions,WindDirDegrees,DateUTC
12:55 AM,-5.1,-20.0,49,30.47,10.0,NW,15.0,20.7,N/A,,Clear,310,2014-01-06 06:55:00
1:31 AM,-4.0,-17.0,54,30.39,4.0,WNW,13.8,-,0.00,Snow,Light Snow,300,2014-01-06 07:31:00
1:40 AM,-5.1,-16.1,59,30.39,2.5,WNW,17.3,23.0,0.00,Snow,Light Snow,300,2014-01-06 07:40:00
1:47 AM,-4.0,-18.9,49,30.39,8.0,WNW,19.6,25.3,0.00,,Mostly Cloudy,300,2014-01-06 07:47:00
1:55 AM,-6.0,-20.9,49,30.48,10.0,WNW,15.0,23.0,0.00,,Mostly Cloudy,290,2014-01-06 07:55:00
2:02 AM,-5.1,-20.9,47,30.39,10.0,WNW,15.0,28.8,N/A,,Partly Cloudy,300,2014-01-06 08:02:00
2:55 AM,-6.0,-23.1,44,30.50,10.0,WNW,17.3,27.6,N/A,,Clear,300,2014-01-06 08:55:00
3:55 AM,-9.0,-23.1,50,30.49,10.0,WNW,16.1,-,N/A,,Clear,290,2014-01-06 09:55:00
4:55 AM,-9.0,-23.1,50,30.49,10.0,WNW,11.5,21.9,N/A,,Clear,300,2014-01-06 10:55:00
5:55 AM,-11.0,-23.1,55,30.50,10.0,WNW,10.4,-,N/A,,Clear,290,2014-01-06 11:55:00
6:55 AM,-11.0,-23.1,55,30.50,10.0,West,13.8,-,N/A,,Clear,280,2014-01-06 12:55:00
7:55 AM,-11.0,-23.1,55,30.51,10.0,West,12.7,-,N/A,,Clear,280,2014-01-06 13:55:00
8:55 AM,-8.0,-20.9,53,30.53,10.0,WNW,15.0,-,N/A,,Clear,290,2014-01-06 14:55:00
9:55 AM,-4.0,-20.9,44,30.54,10.0,WNW,16.1,-,N/A,,Mostly Cloudy,290,2014-01-06 15:55:00
10:55 AM,-2.9,-20.0,44,30.54,7.0,WNW,16.1,28.8,N/A,,Overcast,300,2014-01-06 16:55:00
11:33 AM,-2.0,-20.0,42,30.43,10.0,WNW,17.3,28.8,N/A,,Scattered Clouds,290,2014-01-06 17:33:00
11:55 AM,-0.9,-18.9,42,30.52,10.0,WNW,15.0,26.5,N/A,,Partly Cloudy,290,2014-01-06 17:55:00
12:55 PM,-0.9,-18.9,42,30.50,10.0,West,17.3,-,N/A,,Clear,270,2014-01-06 18:55:00
1:55 PM,-0.9,-18.0,44,30.50,10.0,West,17.3,25.3,N/A,,Clear,270,2014-01-06 19:55:00
2:55 PM,-0.0,-17.0,45,30.50,10.0,West,16.1,25.3,N/A,,Clear,270,2014-01-06 20:55:00
3:55 PM,-0.9,-17.0,47,30.51,10.0,West,17.3,28.8,N/A,,Clear,270,2014-01-06 21:55:00
4:55 PM,-2.0,-17.0,49,30.50,10.0,West,10.4,21.9,N/A,,Clear,270,2014-01-06 22:55:00
5:55 PM,-2.0,-17.0,49,30.51,10.0,West,8.1,-,N/A,,Clear,260,2014-01-06 23:55:00
6:55 PM,-4.0,-17.0,54,30.51,10.0,West,9.2,-,N/A,,Clear,260,2014-01-07 00:55:00
7:55 PM,-0.9,-16.1,49,30.50,10.0,WSW,8.1,-,N/A,,Clear,240,2014-01-07 01:55:00
8:55 PM,3.0,-16.1,41,30.49,10.0,WSW,6.9,-,N/A,,Clear,240,2014-01-07 02:55:00
9:55 PM,3.0,-16.1,41,30.48,10.0,SW,5.8,-,N/A,,Clear,230,2014-01-07 03:55:00
10:55 PM,6.1,-16.1,36,30.45,10.0,SW,5.8,-,N/A,,Clear,220,2014-01-07 04:55:00
11:55 PM,7.0,-15.0,36,30.44,10.0,SW,5.8,-,N/A,,Clear,230,2014-01-07 05:55:00